Time;durP1;ratioP1;P1;durP2;ratioP2;P2;SDS_P1;SDS_P2;PMS_P1;PMS_P2;Temp;Humidity;BMP_temperature;BMP_pressure;BME280_temperature;BME280_humidity;BME280_pressure;Samples;Min_cycle;Max_cycle;Signal;HPM_P1;HPM_P2
2023/12/26 00:01:35;;;;;;;26.23;11.50;;;3.30;99.90;;;;;;5028508;28;20046;-54
2023/12/26 00:04:02;;;;;;;26.67;12.15;;;3.30;99.90;;;;;;5033007;28;20153;-53
2023/12/26 00:06:29;;;;;;;13.85;7.22;;;3.30;99.90;;;;;;5033161;28;20056;-58
2023/12/26 00:08:56;;;;;;;13.55;7.43;;;3.30;99.90;;;;;;5032938;28;20041;-55
2023/12/26 00:11:23;;;;;;;13.00;6.32;;;3.30;99.90;;;;;;5032422;28;20465;-57
2023/12/26 00:13:50;;;;;;;10.20;4.45;;;3.20;99.90;;;;;;5032526;28;20121;-57
2023/12/26 00:16:17;;;;;;;12.05;6.20;;;3.10;99.90;;;;;;5033633;28;20388;-56
2023/12/26 00:18:44;;;;;;;18.50;8.65;;;3.00;99.90;;;;;;5032273;28;20052;-54
2023/12/26 00:21:11;;;;;;;7.50;2.65;;;3.10;99.90;;;;;;5025492;28;20045;-55
2023/12/26 00:23:38;;;;;;;6.82;2.80;;;2.90;99.90;;;;;;5030630;28;20049;-56
2023/12/26 00:26:05;;;;;;;5.25;2.30;;;2.70;99.90;;;;;;5032779;28;20111;-57
2023/12/26 00:28:32;;;;;;;5.32;3.33;;;2.60;99.90;;;;;;5032638;28;20402;-53
2023/12/26 00:30:59;;;;;;;7.22;3.38;;;2.60;99.90;;;;;;5026299;28;20079;-57
2023/12/26 00:33:26;;;;;;;6.15;3.20;;;2.60;99.90;;;;;;5012290;28;20128;-56
2023/12/26 00:35:58;;;;;;;8.18;4.15;;;2.50;99.90;;;;;;5031015;28;20069;-56
2023/12/26 00:38:25;;;;;;;7.40;4.20;;;2.60;99.90;;;;;;5024912;28;20053;-53
2023/12/26 00:40:52;;;;;;;7.05;4.25;;;2.60;99.90;;;;;;5025282;28;20152;-55
2023/12/26 00:43:19;;;;;;;7.32;3.70;;;2.60;99.90;;;;;;5013822;28;20045;-57
2023/12/26 00:45:46;;;;;;;7.78;4.10;;;2.50;99.90;;;;;;5027615;28;20057;-56
2023/12/26 00:48:14;;;;;;;7.88;3.70;;;2.50;99.90;;;;;;5024755;28;20041;-57
2023/12/26 00:50:42;;;;;;;8.20;3.63;;;2.50;99.90;;;;;;5008566;28;20141;-54
2023/12/26 00:53:09;;;;;;;8.10;3.97;;;2.50;99.90;;;;;;5014692;28;20437;-57
2023/12/26 00:55:36;;;;;;;7.97;4.43;;;2.40;99.90;;;;;;5002922;28;20148;-55
2023/12/26 00:58:03;;;;;;;6.85;4.03;;;2.50;99.90;;;;;;5005927;28;20034;-57
2023/12/26 01:00:30;;;;;;;9.90;4.07;;;2.50;99.90;;;;;;5006553;28;20410;-55
2023/12/26 01:02:57;;;;;;;9.15;3.80;;;2.40;99.90;;;;;;5031554;28;20040;-54
2023/12/26 01:05:24;;;;;;;;;;;2.40;99.90;;;;;;5009044;28;20061;-62
2023/12/26 01:07:51;;;;;;;8.93;3.70;;;2.30;99.90;;;;;;5010987;28;20047;-59
2023/12/26 01:10:18;;;;;;;8.32;3.15;;;2.30;99.90;;;;;;5009864;28;20394;-58
2023/12/26 01:12:45;;;;;;;8.38;3.20;;;2.30;99.90;;;;;;5005153;28;20406;-58
2023/12/26 01:15:12;;;;;;;8.20;3.53;;;2.30;99.90;;;;;;5012649;28;20263;-58
2023/12/26 01:17:39;;;;;;;6.40;2.67;;;2.20;99.90;;;;;;5026266;28;20038;-57
2023/12/26 01:20:06;;;;;;;8.32;2.72;;;2.20;99.90;;;;;;5014249;28;20053;-56
2023/12/26 01:22:33;;;;;;;;;;;2.10;99.90;;;;;;5032281;28;20034;-55
2023/12/26 01:25:00;;;;;;;6.63;2.72;;;2.10;99.90;;;;;;5030000;28;19928;-56
2023/12/26 01:27:27;;;;;;;6.63;3.05;;;2.20;99.90;;;;;;5012407;28;20080;-57
2023/12/26 01:29:53;;;;;;;9.63;3.60;;;2.20;99.90;;;;;;5013800;28;20624;-57
2023/12/26 01:32:20;;;;;;;11.57;4.10;;;2.10;99.90;;;;;;5003677;28;20049;-59
2023/12/26 01:34:48;;;;;;;12.73;5.47;;;2.10;99.90;;;;;;5012716;28;20073;-59
2023/12/26 01:37:15;;;;;;;8.23;4.80;;;2.20;99.90;;;;;;5012566;28;20033;-57
2023/12/26 01:39:41;;;;;;;6.22;3.67;;;2.30;99.90;;;;;;5013308;28;20049;-55
2023/12/26 01:42:08;;;;;;;5.18;2.30;;;2.20;99.90;;;;;;5031535;28;20047;-57
2023/12/26 01:44:35;;;;;;;6.93;2.72;;;2.10;99.90;;;;;;5012308;28;20041;-60
2023/12/26 01:47:03;;;;;;;3.95;2.05;;;2.00;99.90;;;;;;5027787;28;20076;-61
2023/12/26 01:49:30;;;;;;;6.05;3.22;;;2.00;99.90;;;;;;5014973;28;20053;-60
2023/12/26 01:51:58;;;;;;;4.47;1.98;;;2.00;99.90;;;;;;5014965;28;20142;-56
2023/12/26 01:54:30;;;;;;;3.47;2.00;;;2.00;99.90;;;;;;5014994;28;20494;-56
2023/12/26 01:56:57;;;;;;;3.17;1.50;;;2.00;99.90;;;;;;5027163;28;20064;-58
2023/12/26 01:59:24;;;;;;;;;;;1.90;99.90;;;;;;5014401;28;20442;-55
2023/12/26 02:01:50;;;;;;;4.03;1.80;;;1.90;99.90;;;;;;5022658;28;19931;-58
2023/12/26 02:04:18;;;;;;;4.80;1.45;;;1.70;99.90;;;;;;5030574;28;20049;-57
2023/12/26 02:06:44;;;;;;;2.83;1.45;;;1.70;99.90;;;;;;5026293;28;20045;-61
2023/12/26 02:09:11;;;;;;;7.20;3.17;;;1.80;99.90;;;;;;5009211;28;20042;-56
2023/12/26 02:11:39;;;;;;;1.90;1.27;;;1.70;99.90;;;;;;5007933;28;20506;-55
2023/12/26 02:14:06;;;;;;;3.10;1.52;;;1.70;99.90;;;;;;5030478;28;20045;-55
2023/12/26 02:16:40;;;;;;;2.63;1.40;;;1.80;99.90;;;;;;5031361;28;20061;-57
2023/12/26 02:19:07;;;;;;;3.30;1.40;;;1.80;99.90;;;;;;5012256;28;20140;-55
2023/12/26 02:21:34;;;;;;;2.63;1.13;;;1.80;99.90;;;;;;5013692;28;20045;-58
2023/12/26 02:24:01;;;;;;;3.88;1.63;;;1.80;99.90;;;;;;5011960;28;20414;-60
2023/12/26 02:26:29;;;;;;;3.30;1.70;;;1.80;99.90;;;;;;5027955;28;20033;-59
2023/12/26 02:28:57;;;;;;;3.85;2.00;;;1.80;99.90;;;;;;5030085;28;20029;-60
2023/12/26 02:31:25;;;;;;;5.70;1.85;;;1.80;99.90;;;;;;5005421;28;20125;-59
2023/12/26 02:33:52;;;;;;;4.85;2.10;;;1.80;99.90;;;;;;5027206;28;20467;-59
2023/12/26 02:36:20;;;;;;;6.03;2.28;;;1.80;99.90;;;;;;5013094;28;20037;-60
2023/12/26 02:38:47;;;;;;;;;;;1.80;99.90;;;;;;5021493;28;20041;-55
2023/12/26 02:41:14;;;;;;;6.47;3.45;;;1.80;99.90;;;;;;5010729;28;20385;-59
2023/12/26 02:43:40;;;;;;;5.10;2.90;;;1.80;99.90;;;;;;5017031;28;20046;-57
2023/12/26 02:46:07;;;;;;;9.68;3.75;;;1.90;99.90;;;;;;5014871;28;20041;-57
2023/12/26 02:48:35;;;;;;;10.13;2.78;;;1.90;99.90;;;;;;5012007;28;20084;-61
2023/12/26 02:51:03;;;;;;;6.18;3.50;;;1.80;99.90;;;;;;5030129;28;20041;-61
2023/12/26 02:53:30;;;;;;;6.28;2.85;;;1.70;99.90;;;;;;5014056;28;20030;-57
2023/12/26 02:55:56;;;;;;;7.75;2.85;;;1.60;99.90;;;;;;5024749;28;20037;-61
2023/12/26 02:58:23;;;;;;;3.70;1.83;;;1.60;99.90;;;;;;5011753;28;20490;-55
2023/12/26 03:00:50;;;;;;;4.30;2.30;;;1.70;99.90;;;;;;5030021;28;20060;-59
2023/12/26 03:03:18;;;;;;;4.97;2.22;;;1.70;99.90;;;;;;5002320;28;20061;-59
2023/12/26 03:05:45;;;;;;;8.55;3.08;;;1.70;99.90;;;;;;5007254;28;20147;-54
2023/12/26 03:08:12;;;;;;;5.90;3.03;;;1.70;99.90;;;;;;5019023;28;20050;-59
2023/12/26 03:10:38;;;;;;;11.15;3.95;;;1.70;99.90;;;;;;5011598;28;20183;-58
2023/12/26 03:13:05;;;;;;;7.78;3.33;;;1.70;99.90;;;;;;5012754;28;20545;-59
2023/12/26 03:15:32;;;;;;;7.28;3.05;;;1.50;99.90;;;;;;5011564;28;20410;-61
2023/12/26 03:17:59;;;;;;;4.72;2.22;;;1.50;99.90;;;;;;5012829;28;20498;-62
2023/12/26 03:20:27;;;;;;;6.95;3.58;;;1.50;99.90;;;;;;5030014;28;20092;-61
2023/12/26 03:22:54;;;;;;;5.32;2.83;;;1.50;99.90;;;;;;5030680;28;20045;-62
2023/12/26 03:25:21;;;;;;;3.83;2.00;;;1.50;99.90;;;;;;5026536;28;20068;-55
2023/12/26 03:27:49;;;;;;;4.63;1.95;;;1.50;99.90;;;;;;5018588;28;20372;-57
2023/12/26 03:30:16;;;;;;;4.35;1.88;;;1.40;99.90;;;;;;5027960;28;20045;-57
2023/12/26 03:32:44;;;;;;;6.60;3.05;;;1.50;99.90;;;;;;5027119;28;20064;-58
2023/12/26 03:35:11;;;;;;;4.18;2.15;;;1.60;99.90;;;;;;5009198;28;20155;-57
2023/12/26 03:37:38;;;;;;;2.75;1.77;;;1.50;99.90;;;;;;5030023;28;20041;-55
2023/12/26 03:40:06;;;;;;;2.70;1.33;;;1.50;99.90;;;;;;5025134;28;20044;-56
2023/12/26 03:42:33;;;;;;;3.70;1.20;;;1.40;99.90;;;;;;5022211;28;20545;-56
2023/12/26 03:45:00;;;;;;;3.42;1.10;;;1.50;99.90;;;;;;5011576;28;20041;-55
2023/12/26 03:47:27;;;;;;;2.05;1.20;;;1.50;99.90;;;;;;5030988;28;20111;-56
2023/12/26 03:49:54;;;;;;;3.55;1.33;;;1.50;99.90;;;;;;5012873;28;20065;-54
2023/12/26 03:52:21;;;;;;;3.10;1.30;;;1.50;99.90;;;;;;5009774;28;20049;-55
2023/12/26 03:54:47;;;;;;;5.82;1.50;;;1.40;99.90;;;;;;5019190;28;20045;-53
2023/12/26 03:57:14;;;;;;;2.78;1.00;;;1.40;99.90;;;;;;5027224;28;20594;-53
2023/12/26 03:59:41;;;;;;;2.28;1.30;;;1.40;99.90;;;;;;5015491;28;20088;-55
2023/12/26 04:02:08;;;;;;;3.72;1.45;;;1.50;99.90;;;;;;5018090;28;20494;-58
2023/12/26 04:04:35;;;;;;;2.55;1.30;;;1.40;99.90;;;;;;5013933;28;20515;-56
2023/12/26 04:07:02;;;;;;;2.60;1.20;;;1.40;99.90;;;;;;5014297;28;20037;-54
2023/12/26 04:09:29;;;;;;;5.72;1.75;;;1.40;99.90;;;;;;5014445;28;20045;-54
2023/12/26 04:11:56;;;;;;;3.25;1.48;;;1.30;99.90;;;;;;5005363;28;20057;-55
2023/12/26 04:14:23;;;;;;;5.50;2.13;;;1.40;99.90;;;;;;5002471;28;20051;-56
2023/12/26 04:16:50;;;;;;;5.07;2.15;;;1.40;99.90;;;;;;5010257;28;20084;-54
2023/12/26 04:19:16;;;;;;;4.15;2.03;;;1.50;99.90;;;;;;5008132;28;21270;-57
2023/12/26 04:21:43;;;;;;;2.25;1.50;;;1.40;99.90;;;;;;4992508;28;20053;-53
2023/12/26 04:24:10;;;;;;;4.47;1.55;;;1.50;99.90;;;;;;4996488;28;20046;-58
2023/12/26 04:26:38;;;;;;;5.85;1.80;;;1.40;99.90;;;;;;4992051;28;20262;-57
2023/12/26 04:29:04;;;;;;;4.07;1.60;;;1.50;99.90;;;;;;5023151;28;20042;-54
2023/12/26 04:31:32;;;;;;;2.80;1.60;;;1.50;99.90;;;;;;5032606;28;20045;-57
2023/12/26 04:33:59;;;;;;;3.28;1.60;;;1.50;99.90;;;;;;5010260;28;20042;-53
2023/12/26 04:36:26;;;;;;;3.35;1.40;;;1.50;99.90;;;;;;5019963;28;20042;-53
2023/12/26 04:38:53;;;;;;;3.60;1.40;;;1.50;99.90;;;;;;5032215;28;20091;-55
2023/12/26 04:41:20;;;;;;;2.25;1.40;;;1.50;99.90;;;;;;5032292;28;20052;-52
2023/12/26 04:43:47;;;;;;;3.33;1.50;;;1.40;99.90;;;;;;5025556;28;20037;-53
2023/12/26 04:46:20;;;;;;;4.38;1.70;;;1.40;99.90;;;;;;5031925;28;20395;-53
2023/12/26 04:48:48;;;;;;;4.07;1.90;;;1.40;99.90;;;;;;5014339;28;20045;-52
2023/12/26 04:51:16;;;;;;;6.88;2.58;;;1.50;99.90;;;;;;5015915;28;20052;-53
2023/12/26 04:53:47;;;;;;;4.63;2.33;;;1.50;99.90;;;;;;5015191;28;20525;-55
2023/12/26 04:56:21;;;;;;;7.55;2.72;;;1.60;99.90;;;;;;5011103;28;20041;-55
2023/12/26 04:58:49;;;;;;;4.95;2.28;;;1.60;99.90;;;;;;5015713;28;20041;-58
2023/12/26 05:01:17;;;;;;;6.20;2.58;;;1.70;99.90;;;;;;5031238;28;20045;-57
2023/12/26 05:03:44;;;;;;;8.60;4.05;;;1.70;99.90;;;;;;5010597;28;20498;-54
2023/12/26 05:06:12;;;;;;;8.63;4.40;;;1.70;99.90;;;;;;5015597;28;20052;-57
2023/12/26 05:08:40;;;;;;;11.55;4.65;;;1.70;99.90;;;;;;5013629;28;20073;-54
2023/12/26 05:11:07;;;;;;;8.85;3.92;;;1.80;99.90;;;;;;5014600;28;20653;-58
2023/12/26 05:13:34;;;;;;;11.82;4.45;;;1.80;99.90;;;;;;5012999;28;20057;-57
2023/12/26 05:16:03;;;;;;;7.70;4.28;;;1.80;99.90;;;;;;5015038;28;20045;-53
2023/12/26 05:18:31;;;;;;;5.75;2.70;;;1.80;99.90;;;;;;5012250;28;20042;-53
2023/12/26 05:20:59;;;;;;;5.82;2.42;;;1.70;99.90;;;;;;5015597;28;20852;-53
2023/12/26 05:23:27;;;;;;;4.20;2.50;;;1.50;99.90;;;;;;5015031;28;20045;-54
2023/12/26 05:25:53;;;;;;;5.72;2.50;;;1.40;99.90;;;;;;5015216;28;20034;-53
2023/12/26 05:28:30;;;;;;;3.23;1.77;;;1.30;99.90;;;;;;5013337;28;20048;-57
2023/12/26 05:31:01;;;;;;;3.20;1.98;;;1.20;99.90;;;;;;5025651;28;20071;-52
2023/12/26 05:33:28;;;;;;;6.72;1.92;;;1.20;99.90;;;;;;5014933;28;20056;-55
2023/12/26 05:35:55;;;;;;;4.07;2.20;;;1.10;99.90;;;;;;5026199;28;20061;-52
2023/12/26 05:38:23;;;;;;;6.78;2.55;;;1.10;99.90;;;;;;5014229;28;20107;-54
2023/12/26 05:40:51;;;;;;;3.63;2.20;;;1.10;99.90;;;;;;5013218;28;20550;-54
2023/12/26 05:43:18;;;;;;;;;;;1.20;99.90;;;;;;5015317;28;20042;-54
2023/12/26 05:45:45;;;;;;;4.50;2.80;;;1.30;99.90;;;;;;5007584;28;20370;-54
2023/12/26 05:48:13;;;;;;;3.60;2.08;;;1.30;99.90;;;;;;5014181;28;20514;-57
2023/12/26 05:50:40;;;;;;;5.88;2.83;;;1.30;99.90;;;;;;5014045;28;20076;-55
2023/12/26 05:53:07;;;;;;;;;;;1.30;99.90;;;;;;5014286;28;20037;-57
2023/12/26 05:55:34;;;;;;;5.82;2.35;;;1.40;99.90;;;;;;5012313;28;19921;-54
2023/12/26 05:58:00;;;;;;;2.42;1.50;;;1.40;99.90;;;;;;5014713;28;20069;-54
2023/12/26 06:00:28;;;;;;;3.85;1.85;;;1.40;99.90;;;;;;5011970;28;20139;-53
2023/12/26 06:02:56;;;;;;;5.32;1.85;;;1.40;99.90;;;;;;5014326;28;20033;-52
2023/12/26 06:05:23;;;;;;;3.80;1.98;;;1.40;99.90;;;;;;5013771;28;20054;-53
2023/12/26 06:07:50;;;;;;;5.57;2.28;;;1.50;99.90;;;;;;5013985;28;20069;-57
2023/12/26 06:10:17;;;;;;;3.95;1.67;;;1.40;99.90;;;;;;5013648;28;20041;-57
2023/12/26 06:12:43;;;;;;;5.07;1.80;;;1.40;99.90;;;;;;5014406;28;20047;-54
2023/12/26 06:15:10;;;;;;;;;;;1.50;99.90;;;;;;5014530;28;20111;-55
2023/12/26 06:17:37;;;;;;;5.30;1.85;;;1.40;99.90;;;;;;5026771;28;19963;-53
2023/12/26 06:20:06;;;;;;;3.65;1.80;;;1.40;99.90;;;;;;5013713;28;20480;-54
2023/12/26 06:22:33;;;;;;;4.45;2.38;;;1.40;99.90;;;;;;5014118;28;20045;-55
2023/12/26 06:25:00;;;;;;;5.90;2.38;;;1.40;99.90;;;;;;5014158;28;20064;-55
2023/12/26 06:27:27;;;;;;;6.90;2.58;;;1.50;99.90;;;;;;5014122;28;20460;-56
2023/12/26 06:29:54;;;;;;;5.28;2.60;;;1.50;99.90;;;;;;5030384;28;20048;-58
2023/12/26 06:32:21;;;;;;;6.40;3.78;;;1.50;99.90;;;;;;5031993;28;20061;-54
2023/12/26 06:34:48;;;;;;;;;;;1.50;99.90;;;;;;5013208;28;20041;-56
2023/12/26 06:37:15;;;;;;;8.15;4.05;;;1.50;99.90;;;;;;5031771;28;20008;-53
2023/12/26 06:39:43;;;;;;;27.40;12.95;;;1.60;99.90;;;;;;5013846;28;20046;-57
2023/12/26 06:42:11;;;;;;;22.75;10.50;;;1.50;99.90;;;;;;5014113;28;20045;-56
2023/12/26 06:44:38;;;;;;;15.43;8.05;;;1.50;99.90;;;;;;5012826;28;20041;-53
2023/12/26 06:47:05;;;;;;;13.18;7.50;;;1.50;99.90;;;;;;5013634;28;20038;-58
2023/12/26 06:49:32;;;;;;;13.05;6.38;;;1.60;99.90;;;;;;5013707;28;20050;-56
2023/12/26 06:52:00;;;;;;;;;;;1.40;99.90;;;;;;5013917;28;20514;-54
2023/12/26 06:54:27;;;;;;;8.77;5.20;;;1.50;99.90;;;;;;5014612;28;19949;-57
2023/12/26 06:56:53;;;;;;;10.25;5.45;;;1.50;99.90;;;;;;5015755;28;20065;-55
2023/12/26 06:59:20;;;;;;;9.85;4.60;;;1.60;99.90;;;;;;5013428;28;20053;-57
2023/12/26 07:01:48;;;;;;;9.38;4.82;;;1.70;99.90;;;;;;5012177;28;20132;-55
2023/12/26 07:04:15;;;;;;;;;;;1.80;99.90;;;;;;5021952;28;20052;-57
2023/12/26 07:06:41;;;;;;;12.98;7.00;;;1.90;99.90;;;;;;5010111;28;19921;-58
2023/12/26 07:09:08;;;;;;;13.07;6.82;;;1.80;99.90;;;;;;5025135;28;20378;-54
2023/12/26 07:11:35;;;;;;;11.18;6.13;;;1.80;99.90;;;;;;5030150;28;20053;-56
2023/12/26 07:14:02;;;;;;;9.60;4.85;;;1.80;99.90;;;;;;5031282;28;20032;-56
2023/12/26 07:16:30;;;;;;;9.18;4.53;;;1.80;99.90;;;;;;5026341;28;20116;-57
2023/12/26 07:18:56;;;;;;;7.47;4.40;;;1.90;99.90;;;;;;5029929;28;20541;-56
2023/12/26 07:21:23;;;;;;;9.85;4.63;;;1.90;99.90;;;;;;5031661;28;20064;-55
2023/12/26 07:23:50;;;;;;;28.17;12.43;;;1.90;99.90;;;;;;5031188;28;20069;-53
2023/12/26 07:26:17;;;;;;;28.60;14.63;;;1.90;99.90;;;;;;5026344;28;20129;-57
2023/12/26 07:28:44;;;;;;;14.85;7.28;;;2.00;99.90;;;;;;5029789;28;20437;-53
2023/12/26 07:31:20;;;;;;;9.63;4.72;;;2.00;99.90;;;;;;5031599;28;20045;-54
2023/12/26 07:33:47;;;;;;;6.18;3.72;;;2.00;99.90;;;;;;5032679;28;20041;-57
2023/12/26 07:36:14;;;;;;;;;;;2.10;99.90;;;;;;5032799;28;20048;-57
2023/12/26 07:38:41;;;;;;;6.85;3.67;;;2.10;99.90;;;;;;5029235;28;20378;-54
2023/12/26 07:41:08;;;;;;;10.32;5.97;;;2.20;99.90;;;;;;5028937;28;20048;-57
2023/12/26 07:43:35;;;;;;;10.23;5.03;;;2.20;99.90;;;;;;5034109;28;20049;-54
2023/12/26 07:46:02;;;;;;;7.72;4.15;;;2.30;99.90;;;;;;5034463;28;20037;-53
2023/12/26 07:48:29;;;;;;;;;;;2.30;99.90;;;;;;5031637;28;20046;-57
2023/12/26 07:50:56;;;;;;;7.38;3.20;;;2.30;99.90;;;;;;5028222;28;19921;-58
2023/12/26 07:53:23;;;;;;;5.63;3.45;;;2.40;99.90;;;;;;5034848;28;20079;-58
2023/12/26 07:55:50;;;;;;;7.13;4.80;;;2.50;99.90;;;;;;5029462;28;20049;-53
2023/12/26 07:58:17;;;;;;;8.88;4.97;;;2.50;99.90;;;;;;5034719;28;20051;-54
2023/12/26 08:00:44;;;;;;;10.45;5.57;;;2.60;99.90;;;;;;5033828;28;20049;-56
2023/12/26 08:03:15;;;;;;;10.15;6.60;;;2.60;99.90;;;;;;5035118;28;20402;-53
2023/12/26 08:05:42;;;;;;;11.77;6.78;;;2.70;99.90;;;;;;5029244;28;20045;-58
2023/12/26 08:08:11;;;;;;;11.07;6.50;;;2.70;99.90;;;;;;5034147;28;20045;-55
2023/12/26 08:10:40;;;;;;;20.45;10.05;;;2.80;99.90;;;;;;5034279;28;20042;-53
2023/12/26 08:13:07;;;;;;;18.58;9.35;;;2.90;99.90;;;;;;5025377;28;20124;-54
2023/12/26 08:15:34;;;;;;;19.05;9.63;;;2.90;99.90;;;;;;5034587;28;20049;-53
2023/12/26 08:18:00;;;;;;;15.40;7.97;;;2.90;99.90;;;;;;5026171;28;20044;-55
2023/12/26 08:20:28;;;;;;;20.95;11.80;;;2.90;99.90;;;;;;5034601;28;20509;-55
2023/12/26 08:22:54;;;;;;;19.35;10.75;;;2.90;99.90;;;;;;5029088;28;20053;-54
2023/12/26 08:25:21;;;;;;;10.00;6.05;;;2.90;99.90;;;;;;5028027;28;20049;-54
2023/12/26 08:27:48;;;;;;;8.80;5.43;;;2.90;99.90;;;;;;5016308;28;20049;-56
2023/12/26 08:30:16;;;;;;;9.57;5.25;;;2.70;99.90;;;;;;5033916;28;20041;-56
2023/12/26 08:32:43;;;;;;;14.05;6.13;;;2.60;99.90;;;;;;5029135;28;20048;-57
2023/12/26 08:35:09;;;;;;;9.15;5.18;;;2.50;99.90;;;;;;5027364;28;20041;-53
2023/12/26 08:37:36;;;;;;;11.20;5.97;;;2.60;99.90;;;;;;5033778;28;20558;-56
2023/12/26 08:40:03;;;;;;;10.98;5.38;;;2.60;99.90;;;;;;5025339;28;20041;-53
2023/12/26 08:42:30;;;;;;;8.90;5.28;;;2.50;99.90;;;;;;5030168;28;20049;-53
2023/12/26 08:44:57;;;;;;;14.77;6.53;;;2.60;99.90;;;;;;5019677;28;20045;-56
2023/12/26 08:47:24;;;;;;;9.73;6.00;;;2.50;99.90;;;;;;5020336;28;20100;-53
2023/12/26 08:49:50;;;;;;;9.57;5.68;;;2.50;99.90;;;;;;5033666;28;20103;-53
2023/12/26 08:52:18;;;;;;;7.03;3.47;;;2.60;99.90;;;;;;5033292;28;20049;-55
2023/12/26 08:54:44;;;;;;;;;;;2.70;99.90;;;;;;5027242;28;20056;-55
2023/12/26 08:57:11;;;;;;;44.22;24.65;;;2.70;99.90;;;;;;5031125;28;20421;-56
2023/12/26 08:59:38;;;;;;;32.78;19.25;;;2.80;99.90;;;;;;5033303;28;20046;-57
2023/12/26 09:02:05;;;;;;;28.52;17.25;;;2.80;99.90;;;;;;5030923;28;20128;-55
2023/12/26 09:04:32;;;;;;;23.48;12.38;;;2.90;99.90;;;;;;5032992;28;20041;-57
2023/12/26 09:06:59;;;;;;;15.68;8.10;;;3.00;99.90;;;;;;5032811;28;20049;-57
2023/12/26 09:09:27;;;;;;;13.98;8.40;;;3.00;99.90;;;;;;5021645;28;20511;-54
2023/12/26 09:11:56;;;;;;;21.35;11.15;;;2.90;99.90;;;;;;5030718;28;20630;-54
2023/12/26 09:14:23;;;;;;;17.85;9.85;;;2.80;99.90;;;;;;5033167;28;20034;-56
2023/12/26 09:16:49;;;;;;;15.63;9.85;;;2.80;99.90;;;;;;5032740;28;20042;-57
2023/12/26 09:19:16;;;;;;;11.38;6.32;;;2.80;99.90;;;;;;5029478;28;20038;-53
2023/12/26 09:21:44;;;;;;;16.45;7.93;;;2.90;99.90;;;;;;5030148;28;20081;-56
2023/12/26 09:24:10;;;;;;;;;;;3.00;99.90;;;;;;5020843;28;20124;-54
2023/12/26 09:26:37;;;;;;;18.85;10.50;;;3.20;99.90;;;;;;5032109;28;19927;-56
2023/12/26 09:29:05;;;;;;;24.42;13.07;;;3.40;99.90;;;;;;5024916;28;20045;-58
2023/12/26 09:31:31;;;;;;;;;;;3.60;99.90;;;;;;5027773;28;20046;-55
2023/12/26 09:33:58;;;;;;;11.98;7.20;;;3.90;99.90;;;;;;5025637;28;20321;-57
2023/12/26 09:36:25;;;;;;;14.85;8.27;;;4.00;99.90;;;;;;5024911;28;20045;-58
2023/12/26 09:38:52;;;;;;;61.13;31.38;;;4.20;99.90;;;;;;5030588;28;20042;-54
2023/12/26 09:41:26;;;;;;;18.27;9.73;;;4.40;99.90;;;;;;5033049;28;20446;-56
2023/12/26 09:43:56;;;;;;;16.08;7.93;;;4.60;99.90;;;;;;5032435;28;20065;-54
2023/12/26 09:46:22;;;;;;;16.48;9.00;;;4.70;99.90;;;;;;5026803;28;20042;-55
2023/12/26 09:48:49;;;;;;;19.70;10.82;;;4.90;99.90;;;;;;5029700;28;20371;-53
2023/12/26 09:51:22;;;;;;;21.85;12.32;;;5.20;99.90;;;;;;5032450;28;20079;-53
2023/12/26 09:54:02;;;;;;;21.08;9.73;;;5.40;99.90;;;;;;5032293;28;20402;-53
2023/12/26 09:56:31;;;;;;;14.43;8.25;;;5.70;99.90;;;;;;5029773;28;20451;-53
2023/12/26 09:59:01;;;;;;;12.63;7.18;;;5.70;99.90;;;;;;5024887;28;20041;-55
2023/12/26 10:01:28;;;;;;;16.55;9.82;;;5.70;99.90;;;;;;5031156;28;20088;-54
2023/12/26 10:03:56;;;;;;;18.35;10.30;;;5.80;99.90;;;;;;5027344;28;20042;-55
2023/12/26 10:06:23;;;;;;;16.77;9.63;;;5.90;99.90;;;;;;5031419;28;20034;-57
2023/12/26 10:08:50;;;;;;;15.15;8.15;;;5.80;99.90;;;;;;5031711;28;20061;-53
2023/12/26 10:11:17;;;;;;;16.65;8.65;;;5.80;99.90;;;;;;5030552;28;20038;-52
2023/12/26 10:13:50;;;;;;;15.43;7.78;;;5.90;99.90;;;;;;5021215;28;20076;-52
2023/12/26 10:16:17;;;;;;;11.38;6.38;;;6.00;99.90;;;;;;5024679;28;20542;-54
2023/12/26 10:18:44;;;;;;;15.48;7.10;;;5.80;99.90;;;;;;5031721;28;20047;-53
2023/12/26 10:21:11;;;;;;;;;;;5.80;99.90;;;;;;5030840;28;20049;-55
2023/12/26 10:23:39;;;;;;;10.27;6.05;;;5.90;99.90;;;;;;5017868;28;19928;-56
2023/12/26 10:26:06;;;;;;;;;;;6.00;99.90;;;;;;5032377;28;20069;-57
2023/12/26 10:28:38;;;;;;;20.95;8.98;;;5.90;99.90;;;;;;5029419;28;19921;-56
2023/12/26 10:31:13;;;;;;;14.30;7.13;;;6.00;99.90;;;;;;5028072;28;20041;-54
2023/12/26 10:33:41;;;;;;;14.43;7.25;;;6.00;99.90;;;;;;5032013;28;20410;-53
2023/12/26 10:36:12;;;;;;;22.10;9.07;;;6.00;99.90;;;;;;5031720;28;20080;-55
2023/12/26 10:38:39;;;;;;;15.40;7.50;;;5.90;99.90;;;;;;5031833;28;20144;-53
2023/12/26 10:41:13;;;;;;;8.98;5.70;;;5.80;99.90;;;;;;5021087;28;20509;-57
2023/12/26 10:43:40;;;;;;;9.43;5.82;;;5.80;99.90;;;;;;5017802;28;20096;-55
2023/12/26 10:46:08;;;;;;;10.63;5.10;;;5.80;99.90;;;;;;5030945;28;20051;-53
2023/12/26 10:48:36;;;;;;;7.63;4.88;;;5.80;99.90;;;;;;5031311;28;20474;-55
2023/12/26 10:51:06;;;;;;;7.65;4.63;;;5.70;99.90;;;;;;5030350;28;20052;-53
2023/12/26 10:53:43;;;;;;;11.75;4.80;;;5.80;99.90;;;;;;5027400;28;20547;-55
2023/12/26 10:56:11;;;;;;;;;;;5.90;99.90;;;;;;5030433;28;20063;-59
2023/12/26 10:58:39;;;;;;;8.63;4.78;;;6.10;99.90;;;;;;5027565;28;20035;-56
2023/12/26 11:01:07;;;;;;;7.85;4.32;;;6.30;99.90;;;;;;5019231;28;20038;-58
2023/12/26 11:03:35;;;;;;;7.70;4.35;;;6.60;99.90;;;;;;5023917;28;20455;-59
2023/12/26 11:06:03;;;;;;;7.45;4.60;;;6.80;99.90;;;;;;5023053;28;20053;-56
2023/12/26 11:08:30;;;;;;;8.90;4.60;;;7.10;99.90;;;;;;5030331;28;20037;-55
2023/12/26 11:10:57;;;;;;;7.40;4.90;;;7.30;99.90;;;;;;5028051;28;20029;-54
2023/12/26 11:13:23;;;;;;;8.07;4.90;;;7.40;99.90;;;;;;5028166;28;20379;-56
2023/12/26 11:15:52;;;;;;;6.70;4.78;;;7.50;99.90;;;;;;5020976;28;20042;-59
2023/12/26 11:18:21;;;;;;;8.82;5.68;;;7.60;99.90;;;;;;5023231;28;20045;-54
2023/12/26 11:20:48;;;;;;;9.88;5.93;;;7.60;99.90;;;;;;5030713;28;20046;-54
2023/12/26 11:23:15;;;;;;;;;;;7.60;99.90;;;;;;5026088;28;20041;-59
2023/12/26 11:25:42;;;;;;;9.88;5.38;;;7.80;99.90;;;;;;5027904;28;19921;-55
2023/12/26 11:28:09;;;;;;;14.30;5.53;;;7.80;99.90;;;;;;5023674;28;20137;-57
2023/12/26 11:30:36;;;;;;;8.05;4.88;;;8.00;99.90;;;;;;5024162;28;20042;-58
2023/12/26 11:33:03;;;;;;;7.65;4.55;;;8.00;99.90;;;;;;5026801;28;20029;-58
2023/12/26 11:35:30;;;;;;;9.30;5.05;;;8.00;99.90;;;;;;5024914;28;20120;-57
2023/12/26 11:37:57;;;;;;;8.77;4.90;;;8.00;99.90;;;;;;5006682;28;20050;-57
2023/12/26 11:40:24;;;;;;;15.93;6.90;;;8.10;99.90;;;;;;5022698;28;20046;-54
2023/12/26 11:42:51;;;;;;;14.35;5.72;;;8.00;99.90;;;;;;5021402;28;20048;-57
2023/12/26 11:45:18;;;;;;;6.35;4.22;;;8.00;99.90;;;;;;5021086;28;20052;-56
2023/12/26 11:47:45;;;;;;;8.60;4.45;;;8.00;99.90;;;;;;5027082;28;20482;-57
2023/12/26 11:50:12;;;;;;;9.55;4.72;;;8.00;99.90;;;;;;5029394;28;20041;-59
2023/12/26 11:52:40;;;;;;;8.43;4.50;;;7.90;99.90;;;;;;5005040;28;20056;-58
2023/12/26 11:55:06;;;;;;;10.52;5.97;;;7.80;99.90;;;;;;5021514;28;20049;-55
2023/12/26 11:57:33;;;;;;;12.27;6.22;;;7.80;99.90;;;;;;5028550;28;20095;-55
2023/12/26 12:00:00;;;;;;;9.88;5.32;;;7.70;99.90;;;;;;5027215;28;20508;-56
2023/12/26 12:02:30;;;;;;;11.57;5.75;;;7.70;99.90;;;;;;5014021;28;20095;-56
2023/12/26 12:05:03;;;;;;;14.55;7.25;;;7.60;99.90;;;;;;5017755;28;20052;-59
2023/12/26 12:07:30;;;;;;;9.05;5.60;;;7.60;99.90;;;;;;5030861;28;20033;-60
2023/12/26 12:10:09;;;;;;;9.60;4.78;;;7.50;99.90;;;;;;5030643;28;20055;-58
2023/12/26 12:12:41;;;;;;;9.68;4.90;;;7.50;99.90;;;;;;5019657;28;20533;-59
2023/12/26 12:15:10;;;;;;;9.32;4.45;;;7.50;99.90;;;;;;5013493;28;20048;-55
2023/12/26 12:17:45;;;;;;;8.02;4.65;;;7.50;99.90;;;;;;5030694;28;20568;-58
2023/12/26 12:20:17;;;;;;;6.78;4.07;;;7.50;99.90;;;;;;5032836;28;20045;-56
2023/12/26 12:22:45;;;;;;;6.30;3.65;;;7.50;99.90;;;;;;5028690;28;20469;-59
2023/12/26 12:25:17;;;;;;;11.20;4.88;;;7.40;99.90;;;;;;5029533;28;20049;-59
2023/12/26 12:28:10;;;;;;;12.63;5.43;;;7.40;99.90;;;;;;5028345;28;20041;-58
2023/12/26 12:30:37;;;;;;;8.30;4.60;;;7.40;99.90;;;;;;5031410;28;20049;-59
2023/12/26 12:33:19;;;;;;;10.13;4.88;;;7.50;99.90;;;;;;5033087;28;20042;-58
2023/12/26 12:35:47;;;;;;;9.40;5.35;;;7.60;99.90;;;;;;5027950;28;20033;-59
2023/12/26 12:38:17;;;;;;;14.38;6.32;;;7.50;99.90;;;;;;5032420;28;20120;-60
2023/12/26 12:40:46;;;;;;;8.60;5.32;;;7.60;99.90;;;;;;5028343;28;20134;-60
2023/12/26 12:43:13;;;;;;;7.63;4.78;;;7.70;99.90;;;;;;5029855;28;20051;-57
2023/12/26 12:45:40;;;;;;;9.75;4.15;;;7.70;99.90;;;;;;5029253;28;20145;-54
2023/12/26 12:48:08;;;;;;;8.25;4.50;;;7.70;99.90;;;;;;5028062;28;20038;-59
2023/12/26 12:50:35;;;;;;;18.60;6.82;;;7.80;99.90;;;;;;5031496;28;20103;-59
2023/12/26 12:53:04;;;;;;;25.48;10.25;;;7.80;99.90;;;;;;5031450;28;20172;-57
2023/12/26 12:55:31;;;;;;;20.95;7.57;;;7.80;99.90;;;;;;5007198;28;20038;-58
2023/12/26 12:57:58;;;;;;;11.10;5.30;;;7.90;99.90;;;;;;5026111;28;20398;-59
2023/12/26 13:00:24;;;;;;;6.35;4.50;;;7.90;99.90;;;;;;5031513;28;20037;-55